createdAt,value
2023-01-25T00:00:46.514Z,16.67
2023-01-25T00:03:12.865Z,15.45
2023-01-25T00:05:39.212Z,16.50
2023-01-25T00:08:06.128Z,15.68
2023-01-25T00:10:32.515Z,15.55
2023-01-25T00:12:58.898Z,15.27
2023-01-25T00:15:25.404Z,16.83
2023-01-25T00:17:51.711Z,15.30
2023-01-25T00:20:18.056Z,15.00
2023-01-25T00:22:44.443Z,13.50
2023-01-25T00:25:11.118Z,14.20
2023-01-25T00:27:37.651Z,14.80
2023-01-25T00:30:04.457Z,16.05
2023-01-25T00:33:16.922Z,15.30
2023-01-25T00:35:46.016Z,17.23
2023-01-25T00:38:31.041Z,15.25
2023-01-25T00:40:57.849Z,15.60
2023-01-25T00:43:24.192Z,16.65
2023-01-25T00:45:50.500Z,15.98
2023-01-25T00:48:16.844Z,16.85
2023-01-25T00:50:43.339Z,17.15
2023-01-25T00:53:09.659Z,17.13
2023-01-25T00:55:35.960Z,17.00
2023-01-25T00:58:02.294Z,16.40
2023-01-25T01:00:28.690Z,16.92
2023-01-25T01:02:55.243Z,16.08
2023-01-25T01:05:22.446Z,17.67
2023-01-25T01:07:59.202Z,17.30
2023-01-25T01:10:25.532Z,17.75
2023-01-25T01:12:51.858Z,17.48
2023-01-25T01:15:18.187Z,17.98
2023-01-25T01:17:44.501Z,17.67
2023-01-25T01:20:11.681Z,17.92
2023-01-25T01:22:37.999Z,17.73
2023-01-25T01:25:04.889Z,17.83
2023-01-25T01:27:31.211Z,18.25
2023-01-25T01:29:57.540Z,17.65
2023-01-25T01:32:23.965Z,17.10
2023-01-25T01:34:50.327Z,17.45
2023-01-25T01:37:16.666Z,17.27
2023-01-25T01:39:42.997Z,17.10
2023-01-25T01:42:09.303Z,17.50
2023-01-25T01:44:47.828Z,17.60
2023-01-25T01:47:32.723Z,17.38
2023-01-25T01:50:04.913Z,17.90
2023-01-25T01:52:35.633Z,18.42
2023-01-25T01:55:11.665Z,19.50
2023-01-25T01:57:47.066Z,17.42
2023-01-25T02:00:20.742Z,17.20
2023-01-25T02:02:49.965Z,17.45
2023-01-25T02:05:22.716Z,16.58
2023-01-25T02:07:52.269Z,17.45
2023-01-25T02:10:20.154Z,15.45
2023-01-25T02:12:48.331Z,15.40
2023-01-25T02:15:14.714Z,15.88
2023-01-25T02:17:41.704Z,17.42
2023-01-25T02:20:32.950Z,17.85
2023-01-25T02:23:07.207Z,17.45
2023-01-25T02:25:33.588Z,17.80
2023-01-25T02:28:12.628Z,17.33
2023-01-25T02:30:39.052Z,17.90
2023-01-25T02:33:05.346Z,16.00
2023-01-25T02:35:41.832Z,16.65
2023-01-25T02:38:11.887Z,16.52
2023-01-25T02:41:06.906Z,17.23
2023-01-25T02:43:34.972Z,17.95
2023-01-25T02:46:09.605Z,16.30
2023-01-25T02:51:03.134Z,17.58
2023-01-25T02:53:29.433Z,17.00
2023-01-25T02:55:55.740Z,17.25
2023-01-25T02:58:22.033Z,17.20
2023-01-25T03:00:48.339Z,17.45
2023-01-25T03:03:14.677Z,16.85
2023-01-25T03:05:40.996Z,17.52
2023-01-25T03:08:07.435Z,18.05
2023-01-25T03:10:33.749Z,18.77
2023-01-25T03:13:00.050Z,18.88
2023-01-25T03:15:26.665Z,18.38
2023-01-25T03:17:53.015Z,18.58
2023-01-25T03:20:19.473Z,20.25
2023-01-25T03:22:45.755Z,20.70
2023-01-25T03:25:12.049Z,20.10
2023-01-25T03:27:38.355Z,20.10
2023-01-25T03:30:05.337Z,19.63
2023-01-25T03:32:31.719Z,21.35
2023-01-25T03:34:58.039Z,19.48
2023-01-25T03:37:24.969Z,20.30
2023-01-25T03:39:51.276Z,20.80
2023-01-25T03:42:20.379Z,20.85
2023-01-25T03:44:46.700Z,20.52
2023-01-25T03:47:13.309Z,21.27
2023-01-25T03:49:39.699Z,22.27
2023-01-25T03:52:06.162Z,21.33
2023-01-25T03:54:32.538Z,22.25
2023-01-25T03:56:58.886Z,20.63
2023-01-25T03:59:25.460Z,22.48
2023-01-25T04:01:52.883Z,16.75
2023-01-25T04:04:19.240Z,17.42
2023-01-25T04:06:45.716Z,17.48
2023-01-25T04:09:12.012Z,20.38
2023-01-25T04:11:38.321Z,21.05
2023-01-25T04:14:04.656Z,21.92
2023-01-25T04:16:30.991Z,19.58
2023-01-25T04:18:57.717Z,20.67
2023-01-25T04:21:24.086Z,19.58
2023-01-25T04:23:50.402Z,16.40
2023-01-25T04:26:16.739Z,19.17
2023-01-25T04:28:43.076Z,18.75
2023-01-25T04:31:09.490Z,17.55
2023-01-25T04:33:35.788Z,19.27
2023-01-25T04:36:02.505Z,19.00
2023-01-25T04:38:28.927Z,15.02
2023-01-25T04:40:55.263Z,14.23
2023-01-25T04:43:21.739Z,15.55
2023-01-25T04:45:48.161Z,16.20
2023-01-25T04:48:14.560Z,14.98
2023-01-25T04:50:42.428Z,18.17
2023-01-25T04:53:10.284Z,15.23
2023-01-25T04:55:36.612Z,15.90
2023-01-25T04:58:03.867Z,16.10
2023-01-25T05:00:31.042Z,14.57
2023-01-25T05:02:57.608Z,14.45
2023-01-25T05:05:23.916Z,13.40
2023-01-25T05:07:50.198Z,14.75
2023-01-25T05:10:16.515Z,14.73
2023-01-25T05:12:43.244Z,11.73
2023-01-25T05:15:10.219Z,14.32
2023-01-25T05:17:36.757Z,14.98
2023-01-25T05:20:03.980Z,13.85
2023-01-25T05:22:30.625Z,13.35
2023-01-25T05:24:56.940Z,13.25
2023-01-25T05:27:23.296Z,14.38
2023-01-25T05:29:49.599Z,14.38
2023-01-25T05:32:19.271Z,14.80
2023-01-25T05:34:45.986Z,14.48
2023-01-25T05:37:14.640Z,17.20
2023-01-25T05:39:40.990Z,17.13
2023-01-25T05:42:18.294Z,17.90
2023-01-25T05:44:47.344Z,17.77
2023-01-25T05:47:17.263Z,16.10
2023-01-25T05:49:43.943Z,16.10
2023-01-25T05:52:14.097Z,16.98
2023-01-25T05:54:40.682Z,17.48
2023-01-25T05:57:06.980Z,19.45
2023-01-25T05:59:33.266Z,18.67
2023-01-25T06:01:59.582Z,17.25
2023-01-25T06:04:25.903Z,18.33
2023-01-25T06:06:52.209Z,18.77
2023-01-25T06:09:18.511Z,18.95
2023-01-25T06:11:45.398Z,17.55
2023-01-25T06:14:11.694Z,18.52
2023-01-25T06:16:38.055Z,19.27
2023-01-25T06:19:06.120Z,18.83
2023-01-25T06:21:33.354Z,20.08
2023-01-25T06:24:01.114Z,19.02
2023-01-25T06:26:27.495Z,19.92
2023-01-25T06:28:53.796Z,20.13
2023-01-25T06:31:20.262Z,19.17
2023-01-25T06:33:51.328Z,20.17
2023-01-25T06:36:19.540Z,21.58
2023-01-25T06:38:54.513Z,20.58
2023-01-25T06:41:21.269Z,18.85
2023-01-25T06:43:50.323Z,19.65
2023-01-25T06:46:16.856Z,19.17
2023-01-25T06:48:43.269Z,19.08
2023-01-25T06:51:13.757Z,18.60
2023-01-25T06:53:45.369Z,21.38
2023-01-25T06:56:25.024Z,21.60
2023-01-25T06:58:56.072Z,21.17
2023-01-25T07:01:24.255Z,20.85
2023-01-25T07:03:56.962Z,19.85
2023-01-25T07:06:31.659Z,20.02
2023-01-25T07:09:06.123Z,19.13
2023-01-25T07:11:32.649Z,21.23
2023-01-25T07:13:58.963Z,19.67
2023-01-25T07:16:27.006Z,18.40
2023-01-25T07:19:00.469Z,19.58
2023-01-25T07:21:29.180Z,19.23
2023-01-25T07:24:00.228Z,19.65
2023-01-25T07:26:26.624Z,19.08
2023-01-25T07:28:54.144Z,20.85
2023-01-25T07:31:21.060Z,19.10
2023-01-25T07:33:48.550Z,22.30
2023-01-25T07:36:15.522Z,21.38
2023-01-25T07:38:41.871Z,21.13
2023-01-25T07:41:08.192Z,20.67
2023-01-25T07:43:34.587Z,21.20
2023-01-25T07:46:03.266Z,22.50
2023-01-25T07:48:30.193Z,21.77
2023-01-25T07:51:00.728Z,21.17
2023-01-25T07:53:27.030Z,22.25
2023-01-25T07:55:53.310Z,22.83
2023-01-25T07:58:19.604Z,21.77
2023-01-25T08:00:45.888Z,21.98
2023-01-25T08:03:12.189Z,23.90
2023-01-25T08:05:44.448Z,23.58
2023-01-25T08:08:10.729Z,22.05
2023-01-25T08:10:38.424Z,23.10
2023-01-25T08:13:04.721Z,22.35
2023-01-25T08:15:31.020Z,22.77
2023-01-25T08:18:00.003Z,22.15
2023-01-25T08:20:26.334Z,22.70
2023-01-25T08:22:52.792Z,20.75
2023-01-25T08:25:19.139Z,21.67
2023-01-25T08:27:45.448Z,21.25
2023-01-25T08:30:12.238Z,22.33
2023-01-25T08:32:38.951Z,20.30
2023-01-25T08:35:05.918Z,21.33
2023-01-25T08:37:32.253Z,20.30
2023-01-25T08:39:58.546Z,20.55
2023-01-25T08:42:24.918Z,20.88
2023-01-25T08:44:51.342Z,22.00
2023-01-25T08:47:17.653Z,21.48
2023-01-25T08:49:43.951Z,21.20
2023-01-25T08:52:10.277Z,22.08
2023-01-25T08:54:36.596Z,22.58
2023-01-25T08:57:02.985Z,22.55
2023-01-25T08:59:29.377Z,22.65
2023-01-25T09:01:55.686Z,22.58
2023-01-25T09:04:22.087Z,23.20
2023-01-25T09:06:48.393Z,23.65
2023-01-25T09:09:14.798Z,23.10
2023-01-25T09:11:41.093Z,22.55
2023-01-25T09:14:07.465Z,23.13
2023-01-25T09:16:33.790Z,22.60
2023-01-25T09:19:02.101Z,23.42
2023-01-25T09:21:29.393Z,23.45
2023-01-25T09:24:11.514Z,23.52
2023-01-25T09:26:40.778Z,22.13
2023-01-25T09:29:09.862Z,24.05
2023-01-25T09:31:38.444Z,22.00
2023-01-25T09:34:04.771Z,22.17
2023-01-25T09:36:31.073Z,23.83
2023-01-25T09:38:57.440Z,22.50
2023-01-25T09:41:32.258Z,23.88
2023-01-25T09:44:14.198Z,20.95
2023-01-25T09:46:58.723Z,22.52
2023-01-25T09:49:35.414Z,21.43
2023-01-25T09:52:08.129Z,21.63
2023-01-25T09:54:46.494Z,20.90
2023-01-25T09:57:19.483Z,21.20
2023-01-25T09:59:49.241Z,21.42
2023-01-25T10:02:43.130Z,22.73
2023-01-25T10:05:21.630Z,21.00
2023-01-25T10:08:29.011Z,21.13
2023-01-25T10:11:02.079Z,22.38
2023-01-25T10:13:28.653Z,23.35
2023-01-25T10:16:01.731Z,23.08
2023-01-25T10:18:40.917Z,22.40
2023-01-25T10:21:21.422Z,22.10
2023-01-25T10:24:08.203Z,21.15
2023-01-25T10:26:38.898Z,21.25
2023-01-25T10:29:15.408Z,20.83
2023-01-25T10:32:17.937Z,23.40
2023-01-25T10:34:56.251Z,21.73
2023-01-25T10:37:26.682Z,23.02
2023-01-25T10:40:04.635Z,23.65
2023-01-25T10:42:53.204Z,22.25
2023-01-25T10:45:19.504Z,22.98
2023-01-25T10:47:57.772Z,23.15
2023-01-25T10:50:38.988Z,21.85
2023-01-25T10:53:05.397Z,22.33
2023-01-25T10:55:31.734Z,21.23
2023-01-25T10:57:58.220Z,22.35
2023-01-25T11:00:37.378Z,20.90
2023-01-25T11:03:04.482Z,22.90
2023-01-25T11:05:39.641Z,22.52
2023-01-25T11:08:23.743Z,22.05
2023-01-25T11:10:50.941Z,23.45
2023-01-25T11:13:17.167Z,22.88
2023-01-25T11:15:50.471Z,23.17
2023-01-25T11:18:27.699Z,23.60
2023-01-25T11:21:14.143Z,24.92
2023-01-25T11:23:40.659Z,23.63
2023-01-25T11:26:18.876Z,25.75
2023-01-25T11:28:46.791Z,26.00
2023-01-25T11:31:16.235Z,24.83
2023-01-25T11:33:42.973Z,24.17
2023-01-25T11:36:19.175Z,24.17
2023-01-25T11:39:03.754Z,24.98
2023-01-25T11:41:48.986Z,23.55
2023-01-25T11:47:04.735Z,25.02
2023-01-25T11:49:37.479Z,22.00
2023-01-25T11:52:21.424Z,25.67
2023-01-25T11:55:14.455Z,25.65
2023-01-25T11:58:22.200Z,24.77
2023-01-25T12:00:53.838Z,23.95
2023-01-25T12:03:41.547Z,25.45
2023-01-25T12:06:32.516Z,24.45
2023-01-25T12:09:30.441Z,24.38
2023-01-25T12:12:02.884Z,25.25
2023-01-25T12:14:53.118Z,22.80
2023-01-25T12:17:48.807Z,23.60
2023-01-25T12:20:37.054Z,23.15
2023-01-25T12:23:40.996Z,22.52
2023-01-25T12:26:13.002Z,21.10
2023-01-25T12:29:11.768Z,22.10
2023-01-25T12:31:46.856Z,19.85
2023-01-25T12:34:19.849Z,19.73
2023-01-25T12:36:49.272Z,21.38
2023-01-25T12:39:18.321Z,20.15
2023-01-25T12:42:06.372Z,21.55
2023-01-25T12:44:52.312Z,19.83
2023-01-25T12:47:37.951Z,18.27
2023-01-25T12:50:13.125Z,17.30
2023-01-25T12:53:07.135Z,19.35
2023-01-25T12:55:33.493Z,18.67
2023-01-25T12:58:23.836Z,19.02
2023-01-25T13:01:05.544Z,19.23
2023-01-25T13:03:54.318Z,19.08
2023-01-25T13:06:33.941Z,19.33
2023-01-25T13:09:13.298Z,18.80
2023-01-25T13:11:45.459Z,19.80
2023-01-25T13:14:18.012Z,20.38
2023-01-25T13:17:01.333Z,21.20
2023-01-25T13:19:31.190Z,19.05
2023-01-25T13:21:59.357Z,19.10
2023-01-25T13:24:26.899Z,19.92
2023-01-25T13:26:53.141Z,18.48
2023-01-25T13:29:37.720Z,18.88
2023-01-25T13:32:09.219Z,18.95
2023-01-25T13:34:35.549Z,19.58
2023-01-25T13:37:16.173Z,19.15
2023-01-25T13:39:45.448Z,19.52
2023-01-25T13:42:11.713Z,18.88
2023-01-25T13:44:43.808Z,19.75
2023-01-25T13:47:13.234Z,18.02
2023-01-25T13:49:48.350Z,19.23
2023-01-25T13:52:16.667Z,18.63
2023-01-25T13:54:47.269Z,19.02
2023-01-25T13:57:25.420Z,18.65
2023-01-25T14:00:21.443Z,19.33
2023-01-25T14:02:54.739Z,19.75
2023-01-25T14:05:23.052Z,20.17
2023-01-25T14:07:52.368Z,19.83
2023-01-25T14:10:21.800Z,19.65
2023-01-25T14:12:48.168Z,20.65
2023-01-25T14:15:20.824Z,20.95
2023-01-25T14:18:04.660Z,21.50
2023-01-25T14:20:31.069Z,24.35
2023-01-25T14:22:57.390Z,22.20
2023-01-25T14:25:23.705Z,20.58
2023-01-25T14:27:53.701Z,21.73
2023-01-25T14:30:31.141Z,22.98
2023-01-25T14:33:04.741Z,22.58
2023-01-25T14:35:42.810Z,21.85
2023-01-25T14:38:22.990Z,23.42
2023-01-25T14:40:51.084Z,21.98
2023-01-25T14:43:18.617Z,22.70
2023-01-25T14:45:44.983Z,23.80
2023-01-25T14:48:33.293Z,22.23
2023-01-25T14:51:12.816Z,21.40
2023-01-25T14:53:43.236Z,23.40
2023-01-25T14:56:53.866Z,23.08
2023-01-25T14:59:37.620Z,20.50
2023-01-25T15:02:27.026Z,21.58
2023-01-25T15:04:55.365Z,21.63
2023-01-25T15:07:52.642Z,21.70
2023-01-25T15:10:28.599Z,21.75
2023-01-25T15:13:18.402Z,20.48
2023-01-25T15:15:55.565Z,21.10
2023-01-25T15:18:52.296Z,20.15
2023-01-25T15:21:23.931Z,22.15
2023-01-25T15:23:51.373Z,21.58
2023-01-25T15:26:21.421Z,22.52
2023-01-25T15:28:50.113Z,22.10
2023-01-25T15:31:42.964Z,25.70
2023-01-25T15:34:15.952Z,22.45
2023-01-25T15:36:42.266Z,23.13
2023-01-25T15:39:12.568Z,24.40
2023-01-25T15:41:38.988Z,23.58
2023-01-25T15:44:05.295Z,22.38
2023-01-25T15:46:32.109Z,22.38
2023-01-25T15:48:58.576Z,23.45
2023-01-25T15:51:25.514Z,22.92
2023-01-25T15:53:52.321Z,24.15
2023-01-25T15:56:25.047Z,23.83
2023-01-25T15:58:57.170Z,22.92
2023-01-25T16:01:25.268Z,26.20
2023-01-25T16:03:51.599Z,26.63
2023-01-25T16:06:36.425Z,23.33
2023-01-25T16:09:16.924Z,24.10
2023-01-25T16:11:43.387Z,25.25
2023-01-25T16:14:09.773Z,24.85
2023-01-25T16:16:43.251Z,26.52
2023-01-25T16:19:15.082Z,26.27
2023-01-25T16:21:42.246Z,28.02
2023-01-25T16:24:10.707Z,26.58
2023-01-25T16:26:46.130Z,26.88
2023-01-25T16:29:12.494Z,26.83
2023-01-25T16:31:38.863Z,26.48
2023-01-25T16:34:05.254Z,27.65
2023-01-25T16:36:31.843Z,28.90
2023-01-25T16:39:07.887Z,30.55
2023-01-25T16:41:34.218Z,29.20
2023-01-25T16:44:00.543Z,31.15
2023-01-25T16:46:27.019Z,31.25
2023-01-25T16:48:53.345Z,31.02
2023-01-25T16:51:22.809Z,32.97
2023-01-25T16:53:50.630Z,32.17
2023-01-25T16:56:22.450Z,32.45
2023-01-25T16:58:50.462Z,35.83
2023-01-25T17:01:19.075Z,42.15
2023-01-25T17:03:46.151Z,38.83
2023-01-25T17:06:24.208Z,39.00
2023-01-25T17:08:51.661Z,39.90
2023-01-25T17:11:18.827Z,37.92
2023-01-25T17:13:53.110Z,39.65
2023-01-25T17:16:20.998Z,40.60
2023-01-25T17:18:47.982Z,38.08
2023-01-25T17:21:15.260Z,40.28
2023-01-25T17:23:42.135Z,44.72
2023-01-25T17:26:14.884Z,42.60
2023-01-25T17:28:41.839Z,41.47
2023-01-25T17:31:20.682Z,44.50
2023-01-25T17:33:47.575Z,46.67
2023-01-25T17:36:15.177Z,45.05
2023-01-25T17:38:42.423Z,44.08
2023-01-25T17:41:12.323Z,45.90
2023-01-25T17:43:39.218Z,49.95
2023-01-25T17:46:20.283Z,51.30
2023-01-25T17:48:46.602Z,52.88
2023-01-25T17:51:12.914Z,54.60
2023-01-25T17:53:39.266Z,52.42
2023-01-25T17:56:06.529Z,55.92
2023-01-25T17:58:36.228Z,54.38
2023-01-25T18:01:14.406Z,53.63
2023-01-25T18:03:44.392Z,54.92
2023-01-25T18:06:16.729Z,54.42
2023-01-25T18:08:45.755Z,59.65
2023-01-25T18:11:14.928Z,57.55
2023-01-25T18:13:43.490Z,60.65
2023-01-25T18:16:10.814Z,57.55
2023-01-25T18:18:38.973Z,57.63
2023-01-25T18:21:13.434Z,58.15
2023-01-25T18:23:40.701Z,61.15
2023-01-25T18:26:07.888Z,57.30
2023-01-25T18:28:34.566Z,58.25
2023-01-25T18:31:05.376Z,55.50
2023-01-25T18:33:31.965Z,58.97
2023-01-25T18:36:00.297Z,57.50
2023-01-25T18:38:27.667Z,56.53
2023-01-25T18:40:54.257Z,56.25
2023-01-25T18:43:20.539Z,59.25
2023-01-25T18:45:54.462Z,56.80
2023-01-25T18:48:21.168Z,45.27
2023-01-25T18:50:47.492Z,59.28
2023-01-25T18:53:13.823Z,60.30
2023-01-25T18:55:40.129Z,59.03
2023-01-25T18:58:06.435Z,59.13
2023-01-25T19:00:34.562Z,60.60
2023-01-25T19:03:01.016Z,62.05
2023-01-25T19:05:27.481Z,58.83
2023-01-25T19:07:53.789Z,59.95
2023-01-25T19:10:20.122Z,61.58
2023-01-25T19:12:46.450Z,60.38
2023-01-25T19:15:12.806Z,60.72
2023-01-25T19:17:39.157Z,59.67
2023-01-25T19:20:05.721Z,57.30
2023-01-25T19:22:32.008Z,57.60
2023-01-25T19:24:58.320Z,59.53
2023-01-25T19:27:24.726Z,58.35
2023-01-25T19:29:51.018Z,55.58
2023-01-25T19:32:17.356Z,57.20
2023-01-25T19:34:43.736Z,54.15
2023-01-25T19:37:10.040Z,56.80
2023-01-25T19:39:36.324Z,57.85
2023-01-25T19:42:02.667Z,57.45
2023-01-25T19:44:29.270Z,58.25
2023-01-25T19:46:55.603Z,56.63
2023-01-25T19:49:21.899Z,57.95
2023-01-25T19:51:48.251Z,59.03
2023-01-25T19:54:16.411Z,56.65
2023-01-25T19:56:48.089Z,59.00
2023-01-25T19:59:20.521Z,59.10
2023-01-25T20:01:47.546Z,58.42
2023-01-25T20:04:16.441Z,56.67
2023-01-25T20:06:43.421Z,59.10
2023-01-25T20:09:14.134Z,60.33
2023-01-25T20:11:41.254Z,59.75
2023-01-25T20:14:08.182Z,57.03
2023-01-25T20:16:34.994Z,59.67
2023-01-25T20:19:02.161Z,57.13
2023-01-25T20:21:30.204Z,57.40
2023-01-25T20:23:58.891Z,57.85
2023-01-25T20:26:28.082Z,58.03
2023-01-25T20:28:57.103Z,57.75
2023-01-25T20:31:29.627Z,58.92
2023-01-25T20:33:58.768Z,56.25
2023-01-25T20:36:25.663Z,56.80
2023-01-25T20:38:51.997Z,52.85
2023-01-25T20:41:19.169Z,53.65
2023-01-25T20:43:52.515Z,55.05
2023-01-25T20:46:20.956Z,52.45
2023-01-25T20:48:47.927Z,51.72
2023-01-25T20:51:16.290Z,51.20
2023-01-25T20:53:44.364Z,53.17
2023-01-25T20:56:12.129Z,51.97
2023-01-25T20:58:38.454Z,54.22
2023-01-25T21:01:13.675Z,52.58
2023-01-25T21:03:40.386Z,51.30
2023-01-25T21:06:07.057Z,50.70
2023-01-25T21:08:33.460Z,52.97
2023-01-25T21:11:00.580Z,52.58
2023-01-25T21:13:27.869Z,52.58
2023-01-25T21:16:05.207Z,54.70
2023-01-25T21:18:33.911Z,50.80
2023-01-25T21:21:08.796Z,54.20
2023-01-25T21:23:37.338Z,55.67
2023-01-25T21:26:05.550Z,54.70
2023-01-25T21:28:32.841Z,54.88
2023-01-25T21:31:06.145Z,54.70
2023-01-25T21:33:32.563Z,53.78
2023-01-25T21:36:01.939Z,54.85
2023-01-25T21:38:28.288Z,53.22
2023-01-25T21:41:00.256Z,53.95
2023-01-25T21:43:26.565Z,54.47
2023-01-25T21:45:52.919Z,52.45
2023-01-25T21:48:19.251Z,52.00
2023-01-25T21:50:45.547Z,52.83
2023-01-25T21:53:11.834Z,53.88
2023-01-25T21:55:38.190Z,53.03
2023-01-25T21:58:04.494Z,53.92
2023-01-25T22:00:30.819Z,53.83
2023-01-25T22:02:57.128Z,53.92
2023-01-25T22:05:23.440Z,56.55
2023-01-25T22:07:49.756Z,54.13
2023-01-25T22:10:16.425Z,62.95
2023-01-25T22:12:42.737Z,64.15
2023-01-25T22:15:09.356Z,60.55
2023-01-25T22:17:35.715Z,59.85
2023-01-25T22:20:02.512Z,58.75
2023-01-25T22:22:28.819Z,63.33
2023-01-25T22:24:55.143Z,64.75
2023-01-25T22:27:31.944Z,62.78
2023-01-25T22:29:58.284Z,63.30
2023-01-25T22:32:24.573Z,60.08
2023-01-25T22:34:50.891Z,57.63
2023-01-25T22:37:17.194Z,59.22
2023-01-25T22:39:43.523Z,59.97
2023-01-25T22:42:09.815Z,60.38
2023-01-25T22:44:36.127Z,59.63
2023-01-25T22:47:02.456Z,60.33
2023-01-25T22:49:28.785Z,56.05
2023-01-25T22:51:55.100Z,60.25
2023-01-25T22:54:21.416Z,56.20
2023-01-25T22:56:47.742Z,57.97
2023-01-25T22:59:14.082Z,58.72
2023-01-25T23:01:40.407Z,60.13
2023-01-25T23:04:06.851Z,61.03
2023-01-25T23:06:33.652Z,57.65
2023-01-25T23:09:03.009Z,56.90
2023-01-25T23:11:31.255Z,59.88
2023-01-25T23:13:58.934Z,58.08
2023-01-25T23:16:25.230Z,61.92
2023-01-25T23:18:51.585Z,60.67
2023-01-25T23:21:21.651Z,56.78
2023-01-25T23:23:49.359Z,56.85
2023-01-25T23:26:16.530Z,57.53
2023-01-25T23:28:43.733Z,54.92
2023-01-25T23:31:12.696Z,59.03
2023-01-25T23:33:41.462Z,57.67
2023-01-25T23:36:13.140Z,57.95
2023-01-25T23:38:39.657Z,58.40
2023-01-25T23:41:06.581Z,55.53
2023-01-25T23:43:33.308Z,57.00
2023-01-25T23:46:00.015Z,58.75
2023-01-25T23:48:26.408Z,57.75
2023-01-25T23:50:53.519Z,58.55
2023-01-25T23:53:20.183Z,56.22
2023-01-25T23:56:00.434Z,57.60
2023-01-25T23:58:29.233Z,58.13
